createdAt,value
2023-02-27T00:00:36.829Z,10.13
2023-02-27T00:03:04.761Z,11.93
2023-02-27T00:05:33.895Z,11.97
2023-02-27T00:08:01.715Z,10.47
2023-02-27T00:10:29.546Z,13.20
2023-02-27T00:12:57.316Z,13.63
2023-02-27T00:15:25.242Z,15.87
2023-02-27T00:17:53.031Z,16.73
2023-02-27T00:20:21.078Z,17.07
2023-02-27T00:22:50.284Z,13.97
2023-02-27T00:25:18.105Z,14.43
2023-02-27T00:27:45.923Z,15.23
2023-02-27T00:30:15.666Z,13.20
2023-02-27T00:32:44.782Z,14.40
2023-02-27T00:35:13.332Z,19.70
2023-02-27T00:37:42.004Z,13.70
2023-02-27T00:40:13.012Z,13.17
2023-02-27T00:42:41.116Z,22.80
2023-02-27T00:45:10.029Z,16.03
2023-02-27T00:47:37.863Z,18.77
2023-02-27T00:50:06.630Z,19.77
2023-02-27T00:52:34.675Z,14.93
2023-02-27T00:55:02.514Z,11.93
2023-02-27T00:57:31.971Z,11.27
2023-02-27T00:59:59.905Z,13.60
2023-02-27T01:02:27.970Z,12.40
2023-02-27T01:04:56.966Z,11.23
2023-02-27T01:07:25.104Z,12.00
2023-02-27T01:09:54.593Z,8.50
2023-02-27T01:12:22.431Z,10.23
2023-02-27T01:14:51.619Z,7.57
2023-02-27T01:17:19.552Z,8.50
2023-02-27T01:19:47.342Z,9.67
2023-02-27T01:22:15.216Z,13.90
2023-02-27T01:24:43.161Z,8.90
2023-02-27T01:27:11.051Z,7.67
2023-02-27T01:29:39.442Z,6.67
2023-02-27T01:32:08.870Z,8.50
2023-02-27T01:34:36.853Z,9.70
2023-02-27T01:37:04.629Z,7.97
2023-02-27T01:39:33.462Z,8.43
2023-02-27T01:42:01.689Z,6.67
2023-02-27T01:44:31.733Z,8.43
2023-02-27T01:46:59.526Z,9.07
2023-02-27T01:49:32.200Z,10.47
2023-02-27T01:52:05.706Z,8.93
2023-02-27T01:54:36.833Z,7.70
2023-02-27T01:57:07.185Z,7.63
2023-02-27T01:59:36.749Z,8.23
2023-02-27T02:02:08.971Z,8.63
2023-02-27T02:04:41.469Z,9.20
2023-02-27T02:07:15.953Z,7.87
2023-02-27T02:09:47.993Z,8.40
2023-02-27T02:12:17.624Z,11.00
2023-02-27T02:14:45.741Z,8.87
2023-02-27T02:17:24.151Z,6.67
2023-02-27T02:20:17.761Z,8.53
2023-02-27T02:23:18.776Z,6.20
2023-02-27T02:26:34.326Z,6.90
2023-02-27T02:29:34.083Z,6.23
2023-02-27T02:32:30.196Z,9.00
2023-02-27T02:35:27.997Z,8.07
2023-02-27T02:38:33.635Z,5.30
2023-02-27T02:41:12.285Z,7.07
2023-02-27T02:43:49.493Z,6.83
2023-02-27T02:46:26.985Z,8.97
2023-02-27T02:49:01.397Z,8.40
2023-02-27T02:51:35.704Z,7.67
2023-02-27T02:54:12.203Z,7.97
2023-02-27T02:56:46.672Z,10.90
2023-02-27T02:59:18.419Z,7.43
2023-02-27T03:01:51.788Z,6.57
2023-02-27T03:04:25.238Z,9.50
2023-02-27T03:06:59.159Z,8.17
2023-02-27T03:09:35.666Z,7.03
2023-02-27T03:12:04.936Z,8.07
2023-02-27T03:14:39.142Z,6.30
2023-02-27T03:17:11.663Z,5.40
2023-02-27T03:19:45.172Z,7.23
2023-02-27T03:22:18.217Z,6.77
2023-02-27T03:24:51.284Z,5.73
2023-02-27T03:27:20.404Z,5.77
2023-02-27T03:29:57.723Z,6.93
2023-02-27T03:32:31.792Z,5.23
2023-02-27T03:35:00.780Z,6.13
2023-02-27T03:37:37.013Z,4.87
2023-02-27T03:40:15.013Z,7.30
2023-02-27T03:42:48.965Z,6.53
2023-02-27T03:45:29.434Z,8.33
2023-02-27T03:47:57.943Z,9.40
2023-02-27T03:50:26.135Z,8.80
2023-02-27T03:52:54.271Z,12.20
2023-02-27T03:55:28.195Z,7.03
2023-02-27T03:57:56.155Z,6.80
2023-02-27T04:00:27.043Z,6.70
2023-02-27T04:02:58.438Z,7.20
2023-02-27T04:05:28.926Z,8.57
2023-02-27T04:08:30.122Z,7.50
2023-02-27T04:11:18.978Z,8.33
2023-02-27T04:14:01.453Z,7.53
2023-02-27T04:16:51.942Z,10.63
2023-02-27T04:19:30.257Z,10.07
2023-02-27T04:22:08.200Z,8.83
2023-02-27T04:24:42.977Z,8.20
2023-02-27T04:27:21.185Z,7.50
2023-02-27T04:29:56.670Z,7.33
2023-02-27T04:32:31.984Z,9.47
2023-02-27T04:35:03.256Z,9.77
2023-02-27T04:37:38.874Z,8.70
2023-02-27T04:40:11.646Z,7.70
2023-02-27T04:42:46.281Z,9.40
2023-02-27T04:45:17.757Z,8.23
2023-02-27T04:47:49.656Z,10.37
2023-02-27T04:50:23.958Z,6.73
2023-02-27T04:52:56.524Z,6.27
2023-02-27T04:55:28.326Z,9.00
2023-02-27T04:58:03.061Z,7.87
2023-02-27T05:00:33.065Z,8.43
2023-02-27T05:03:06.682Z,8.37
2023-02-27T05:05:37.986Z,8.30
2023-02-27T05:08:10.542Z,12.57
2023-02-27T05:10:44.312Z,9.83
2023-02-27T05:13:18.080Z,9.67
2023-02-27T05:15:49.611Z,10.13
2023-02-27T05:18:20.217Z,7.67
2023-02-27T05:20:56.851Z,8.20
2023-02-27T05:23:35.745Z,7.93
2023-02-27T05:26:11.868Z,8.43
2023-02-27T05:28:51.691Z,10.83
2023-02-27T05:31:26.725Z,8.33
2023-02-27T05:34:00.613Z,8.57
2023-02-27T05:36:34.736Z,9.30
2023-02-27T05:39:06.047Z,7.37
2023-02-27T05:41:38.271Z,9.53
2023-02-27T05:44:12.798Z,10.00
2023-02-27T05:46:47.151Z,9.50
2023-02-27T05:49:17.945Z,8.67
2023-02-27T05:51:49.279Z,8.77
2023-02-27T05:54:23.333Z,9.37
2023-02-27T05:56:54.769Z,9.53
2023-02-27T05:59:29.790Z,9.10
2023-02-27T06:01:58.832Z,7.77
2023-02-27T06:04:26.661Z,6.63
2023-02-27T06:06:55.389Z,9.50
2023-02-27T06:09:23.192Z,7.93
2023-02-27T06:11:51.046Z,9.77
2023-02-27T06:14:18.804Z,9.83
2023-02-27T06:16:48.028Z,8.23
2023-02-27T06:19:16.030Z,9.97
2023-02-27T06:21:43.820Z,10.73
2023-02-27T06:24:11.548Z,12.17
2023-02-27T06:26:39.310Z,10.70
2023-02-27T06:29:07.112Z,8.97
2023-02-27T06:31:34.935Z,10.50
2023-02-27T06:34:04.144Z,10.53
2023-02-27T06:36:32.109Z,13.40
2023-02-27T06:38:59.870Z,7.47
2023-02-27T06:41:28.575Z,8.47
2023-02-27T06:43:57.988Z,9.97
2023-02-27T06:46:26.333Z,7.27
2023-02-27T06:48:54.581Z,12.80
2023-02-27T06:51:24.074Z,12.77
2023-02-27T06:53:52.306Z,11.37
2023-02-27T06:56:20.201Z,11.37
2023-02-27T06:58:48.064Z,11.07
2023-02-27T07:01:15.816Z,10.33
2023-02-27T07:03:43.602Z,11.57
2023-02-27T07:06:12.055Z,15.67
2023-02-27T07:09:00.827Z,13.93
2023-02-27T07:11:29.853Z,13.37
2023-02-27T07:13:57.890Z,19.20
2023-02-27T07:16:25.977Z,21.07
2023-02-27T07:18:53.926Z,19.43
2023-02-27T07:21:21.704Z,20.17
2023-02-27T07:23:50.871Z,26.63
2023-02-27T07:26:18.803Z,24.37
2023-02-27T07:28:46.583Z,24.00
2023-02-27T07:31:14.720Z,20.30
2023-02-27T07:33:42.532Z,23.73
2023-02-27T07:36:10.594Z,21.37
2023-02-27T07:38:38.319Z,20.03
2023-02-27T07:41:07.663Z,18.77
2023-02-27T07:43:35.515Z,17.37
2023-02-27T07:46:04.119Z,16.70
2023-02-27T07:48:32.061Z,17.80
2023-02-27T07:51:00.598Z,16.80
2023-02-27T07:53:28.421Z,14.33
2023-02-27T07:55:56.291Z,13.63
2023-02-27T07:58:25.498Z,13.23
2023-02-27T08:00:54.904Z,13.47
2023-02-27T08:03:22.689Z,13.57
2023-02-27T08:05:50.479Z,11.97
2023-02-27T08:08:18.271Z,9.47
2023-02-27T08:10:46.110Z,8.93
2023-02-27T08:13:14.080Z,7.23
2023-02-27T08:15:43.267Z,7.83
2023-02-27T08:18:11.098Z,10.20
2023-02-27T08:20:38.817Z,5.83
2023-02-27T08:23:06.910Z,7.43
2023-02-27T08:25:34.676Z,7.50
2023-02-27T08:28:02.713Z,10.07
2023-02-27T08:30:30.661Z,8.13
2023-02-27T08:32:59.884Z,6.77
2023-02-27T08:35:27.690Z,7.20
2023-02-27T08:37:55.435Z,7.03
2023-02-27T08:40:23.204Z,9.80
2023-02-27T08:42:52.136Z,5.77
2023-02-27T08:45:20.120Z,6.97
2023-02-27T08:47:47.940Z,6.13
2023-02-27T08:50:18.314Z,6.27
2023-02-27T08:52:46.072Z,7.90
2023-02-27T08:55:13.841Z,5.17
2023-02-27T08:57:41.706Z,6.40
2023-02-27T09:00:14.438Z,6.90
2023-02-27T09:02:42.432Z,7.23
2023-02-27T09:05:11.410Z,7.60
2023-02-27T09:07:40.718Z,7.87
2023-02-27T09:10:09.225Z,7.77
2023-02-27T09:12:37.506Z,5.77
2023-02-27T09:15:06.350Z,7.10
2023-02-27T09:17:34.272Z,5.30
2023-02-27T09:20:02.096Z,6.03
2023-02-27T09:22:29.992Z,5.47
2023-02-27T09:24:59.154Z,5.53
2023-02-27T09:27:26.970Z,6.47
2023-02-27T09:29:56.263Z,6.47
2023-02-27T09:32:24.300Z,5.57
2023-02-27T09:34:52.409Z,6.57
2023-02-27T09:37:20.313Z,6.60
2023-02-27T09:39:48.574Z,8.60
2023-02-27T09:42:20.387Z,5.80
2023-02-27T09:44:52.409Z,6.60
2023-02-27T09:47:25.994Z,7.27
2023-02-27T09:50:02.572Z,5.87
2023-02-27T09:52:33.986Z,5.77
2023-02-27T09:55:02.302Z,7.10
2023-02-27T09:57:42.062Z,4.77
2023-02-27T10:00:28.173Z,5.37
2023-02-27T10:03:04.828Z,6.90
2023-02-27T10:05:38.700Z,5.37
2023-02-27T10:08:14.194Z,3.20
2023-02-27T10:10:51.300Z,4.77
2023-02-27T10:13:37.308Z,7.40
2023-02-27T10:16:09.691Z,3.30
2023-02-27T10:18:48.576Z,5.17
2023-02-27T10:21:22.018Z,4.80
2023-02-27T10:23:56.684Z,4.70
2023-02-27T10:26:28.615Z,4.80
2023-02-27T10:28:58.163Z,7.30
2023-02-27T10:31:30.510Z,3.97
2023-02-27T10:34:00.457Z,4.47
2023-02-27T10:36:34.109Z,6.50
2023-02-27T10:39:07.668Z,5.67
2023-02-27T10:41:36.937Z,2.57
2023-02-27T10:44:06.541Z,4.73
2023-02-27T10:46:38.776Z,4.97
2023-02-27T10:49:17.554Z,5.30
2023-02-27T10:51:47.947Z,4.43
2023-02-27T10:54:26.361Z,5.53
2023-02-27T10:56:56.754Z,3.67
2023-02-27T10:59:28.164Z,4.00
2023-02-27T11:01:58.070Z,3.07
2023-02-27T11:04:30.033Z,5.17
2023-02-27T11:06:59.184Z,2.40
2023-02-27T11:09:30.345Z,4.40
2023-02-27T11:12:11.803Z,4.87
2023-02-27T11:14:49.982Z,3.80
2023-02-27T11:17:24.756Z,5.20
2023-02-27T11:19:52.609Z,4.88
2023-02-27T11:22:23.573Z,4.43
2023-02-27T11:24:52.743Z,4.50
2023-02-27T11:27:26.370Z,3.75
2023-02-27T11:30:00.661Z,4.22
2023-02-27T11:32:36.828Z,4.75
2023-02-27T11:35:05.652Z,3.10
2023-02-27T11:37:36.339Z,3.10
2023-02-27T11:40:19.155Z,3.40
2023-02-27T11:42:49.487Z,3.42
2023-02-27T11:46:04.413Z,5.28
2023-02-27T11:48:21.736Z,3.72
2023-02-27T11:51:26.256Z,4.35
2023-02-27T11:54:15.664Z,6.73
2023-02-27T11:56:47.849Z,3.13
2023-02-27T11:59:27.317Z,2.28
2023-02-27T12:02:02.441Z,4.93
2023-02-27T12:04:44.540Z,4.38
2023-02-27T12:07:19.656Z,4.50
2023-02-27T12:09:54.263Z,3.00
2023-02-27T12:12:25.395Z,4.68
2023-02-27T12:14:59.806Z,3.70
2023-02-27T12:17:33.063Z,3.40
2023-02-27T12:20:23.772Z,3.17
2023-02-27T12:22:54.273Z,3.90
2023-02-27T12:25:34.588Z,3.67
2023-02-27T12:28:08.255Z,2.28
2023-02-27T12:30:43.381Z,2.70
2023-02-27T12:33:21.073Z,3.33
2023-02-27T12:35:56.774Z,3.28
2023-02-27T12:38:25.255Z,2.53
2023-02-27T12:41:06.918Z,4.05
2023-02-27T12:43:42.727Z,3.35
2023-02-27T12:46:28.807Z,2.95
2023-02-27T12:49:03.146Z,4.40
2023-02-27T12:51:40.425Z,2.03
2023-02-27T12:54:36.836Z,3.03
2023-02-27T12:57:25.151Z,4.15
2023-02-27T13:00:07.046Z,2.22
2023-02-27T13:02:45.971Z,2.47
2023-02-27T13:05:36.485Z,2.45
2023-02-27T13:08:15.117Z,3.08
2023-02-27T13:10:48.992Z,3.25
2023-02-27T13:13:24.250Z,3.05
2023-02-27T13:15:56.605Z,3.13
2023-02-27T13:18:37.030Z,2.35
2023-02-27T13:21:12.484Z,2.78
2023-02-27T13:23:51.096Z,4.00
2023-02-27T13:26:24.218Z,4.72
2023-02-27T13:28:52.813Z,5.22
2023-02-27T13:31:33.748Z,4.47
2023-02-27T13:34:13.338Z,3.60
2023-02-27T13:36:47.360Z,3.13
2023-02-27T13:39:42.323Z,4.97
2023-02-27T13:42:43.478Z,3.90
2023-02-27T13:45:44.763Z,3.15
2023-02-27T13:48:45.226Z,5.60
2023-02-27T13:51:56.440Z,3.33
2023-02-27T13:54:30.610Z,2.97
2023-02-27T13:57:26.594Z,4.88
2023-02-27T14:00:00.344Z,5.60
2023-02-27T14:02:57.744Z,3.15
2023-02-27T14:05:34.802Z,4.18
2023-02-27T14:08:10.483Z,2.72
2023-02-27T14:10:42.364Z,7.78
2023-02-27T14:13:43.296Z,4.73
2023-02-27T14:16:11.960Z,3.25
2023-02-27T14:19:00.870Z,3.67
2023-02-27T14:21:52.648Z,4.30
2023-02-27T14:24:23.736Z,4.07
2023-02-27T14:26:54.686Z,5.53
2023-02-27T14:29:25.643Z,4.27
2023-02-27T14:31:55.260Z,4.13
2023-02-27T14:34:23.958Z,8.63
2023-02-27T14:36:54.790Z,3.22
2023-02-27T14:39:27.327Z,3.67
2023-02-27T14:42:39.136Z,5.07
2023-02-27T14:45:14.949Z,3.65
2023-02-27T14:47:43.741Z,2.75
2023-02-27T14:50:24.550Z,3.28
2023-02-27T14:52:52.363Z,3.80
2023-02-27T14:55:27.917Z,3.10
2023-02-27T14:58:00.419Z,2.38
2023-02-27T15:00:37.798Z,3.85
2023-02-27T15:03:17.376Z,6.07
2023-02-27T15:05:46.075Z,2.40
2023-02-27T15:08:20.586Z,3.00
2023-02-27T15:10:48.767Z,3.97
2023-02-27T15:13:26.682Z,2.88
2023-02-27T15:16:30.536Z,2.75
2023-02-27T15:19:01.030Z,2.05
2023-02-27T15:21:32.173Z,3.17
2023-02-27T15:24:01.840Z,3.15
2023-02-27T15:26:32.116Z,3.08
2023-02-27T15:29:01.419Z,2.70
2023-02-27T15:31:32.177Z,3.97
2023-02-27T15:34:01.462Z,4.47
2023-02-27T15:36:32.103Z,2.92
2023-02-27T15:39:09.212Z,3.10
2023-02-27T15:41:37.539Z,3.95
2023-02-27T15:44:07.059Z,3.38
2023-02-27T15:46:34.968Z,3.55
2023-02-27T15:49:03.038Z,2.10
2023-02-27T15:51:31.267Z,6.00
2023-02-27T15:54:01.672Z,2.70
2023-02-27T15:56:35.869Z,3.25
2023-02-27T15:59:04.903Z,2.72
2023-02-27T16:01:35.350Z,2.37
2023-02-27T16:04:06.135Z,3.83
2023-02-27T16:06:36.362Z,2.50
2023-02-27T16:09:06.954Z,2.93
2023-02-27T16:11:37.196Z,4.10
2023-02-27T16:14:05.965Z,3.10
2023-02-27T16:16:37.395Z,2.70
2023-02-27T16:19:16.753Z,3.60
2023-02-27T16:22:06.927Z,4.47
2023-02-27T16:24:34.946Z,2.70
2023-02-27T16:27:02.893Z,4.33
2023-02-27T16:29:36.041Z,2.10
2023-02-27T16:32:05.783Z,3.80
2023-02-27T16:34:44.992Z,3.57
2023-02-27T16:37:21.814Z,3.93
2023-02-27T16:39:51.224Z,3.30
2023-02-27T16:42:19.359Z,2.87
2023-02-27T16:44:47.845Z,2.93
2023-02-27T16:47:16.981Z,2.60
2023-02-27T16:49:46.307Z,3.80
2023-02-27T16:52:14.080Z,3.70
2023-02-27T16:54:41.882Z,2.90
2023-02-27T16:57:10.648Z,3.70
2023-02-27T16:59:40.488Z,4.43
2023-02-27T17:02:13.231Z,4.40
2023-02-27T17:04:44.354Z,5.20
2023-02-27T17:07:16.705Z,3.53
2023-02-27T17:09:45.055Z,2.87
2023-02-27T17:12:13.243Z,4.93
2023-02-27T17:14:41.117Z,5.80
2023-02-27T17:17:11.050Z,5.07
2023-02-27T17:19:38.951Z,5.10
2023-02-27T17:22:08.123Z,5.20
2023-02-27T17:24:36.069Z,6.90
2023-02-27T17:27:03.936Z,3.87
2023-02-27T17:29:31.779Z,5.57
2023-02-27T17:31:59.568Z,2.90
2023-02-27T17:34:27.359Z,3.60
2023-02-27T17:36:55.172Z,3.27
2023-02-27T17:39:24.920Z,2.57
2023-02-27T17:41:54.380Z,3.40
2023-02-27T17:44:22.396Z,4.07
2023-02-27T17:46:50.165Z,5.27
2023-02-27T17:49:17.953Z,3.17
2023-02-27T17:51:45.738Z,5.37
2023-02-27T17:54:13.603Z,3.40
2023-02-27T17:56:43.462Z,4.37
2023-02-27T17:59:11.262Z,5.67
2023-02-27T18:01:39.410Z,6.37
2023-02-27T18:04:11.179Z,4.47
2023-02-27T18:06:39.262Z,3.80
2023-02-27T18:09:07.108Z,5.60
2023-02-27T18:11:34.921Z,5.37
2023-02-27T18:14:04.312Z,4.70
2023-02-27T18:16:32.765Z,3.40
2023-02-27T18:19:04.068Z,4.83
2023-02-27T18:21:32.246Z,8.10
2023-02-27T18:24:00.065Z,6.97
2023-02-27T18:26:31.085Z,7.57
2023-02-27T18:29:01.095Z,6.23
2023-02-27T18:31:32.642Z,6.43
2023-02-27T18:34:00.882Z,5.70
2023-02-27T18:36:29.390Z,6.93
2023-02-27T18:38:57.555Z,4.63
2023-02-27T18:41:25.368Z,6.07
2023-02-27T18:43:54.273Z,3.93
2023-02-27T18:46:22.181Z,4.20
2023-02-27T18:48:51.900Z,5.67
2023-02-27T18:51:19.968Z,5.53
2023-02-27T18:53:50.042Z,5.53
2023-02-27T18:56:19.658Z,8.77
2023-02-27T18:58:48.088Z,7.40
2023-02-27T19:01:21.316Z,6.93
2023-02-27T19:03:50.014Z,6.70
2023-02-27T19:06:19.193Z,6.87
2023-02-27T19:08:47.628Z,9.27
2023-02-27T19:11:23.141Z,6.67
2023-02-27T19:13:50.925Z,6.63
2023-02-27T19:16:19.256Z,7.10
2023-02-27T19:18:47.306Z,7.10
2023-02-27T19:21:15.229Z,5.57
2023-02-27T19:23:44.549Z,5.80
2023-02-27T19:26:12.465Z,7.13
2023-02-27T19:28:40.303Z,7.20
2023-02-27T19:31:09.105Z,9.33
2023-02-27T19:33:37.445Z,8.97
2023-02-27T19:36:09.216Z,6.77
2023-02-27T19:38:37.184Z,6.97
2023-02-27T19:41:08.661Z,7.03
2023-02-27T19:43:37.206Z,6.43
2023-02-27T19:46:06.952Z,6.83
2023-02-27T19:48:35.156Z,9.37
2023-02-27T19:51:03.993Z,7.47
2023-02-27T19:53:32.469Z,5.77
2023-02-27T19:56:00.919Z,6.67
2023-02-27T19:58:30.877Z,6.73
2023-02-27T20:00:58.685Z,9.13
2023-02-27T20:03:27.374Z,8.03
2023-02-27T20:05:55.753Z,6.47
2023-02-27T20:08:23.897Z,9.90
2023-02-27T20:10:55.929Z,7.80
2023-02-27T20:13:24.228Z,7.07
2023-02-27T20:16:01.418Z,6.87
2023-02-27T20:18:30.539Z,6.50
2023-02-27T20:21:03.078Z,6.87
2023-02-27T20:23:31.629Z,7.60
2023-02-27T20:26:00.508Z,5.77
2023-02-27T20:28:29.139Z,4.87
2023-02-27T20:30:56.918Z,9.53
2023-02-27T20:33:26.059Z,5.77
2023-02-27T20:35:53.886Z,7.37
2023-02-27T20:38:22.699Z,7.30
2023-02-27T20:40:51.311Z,6.93
2023-02-27T20:43:19.096Z,6.10
2023-02-27T20:45:47.042Z,5.43
2023-02-27T20:48:14.947Z,7.53
2023-02-27T20:50:44.224Z,8.00
2023-02-27T20:53:12.200Z,6.93
2023-02-27T20:55:48.236Z,7.43
2023-02-27T20:58:16.158Z,8.70
2023-02-27T21:00:43.951Z,6.30
2023-02-27T21:03:12.000Z,9.03
2023-02-27T21:05:48.679Z,9.10
2023-02-27T21:08:16.632Z,7.93
2023-02-27T21:10:44.763Z,9.17
2023-02-27T21:13:12.572Z,7.53
2023-02-27T21:15:40.406Z,6.77
2023-02-27T21:18:09.100Z,7.40
2023-02-27T21:20:36.896Z,7.10
2023-02-27T21:23:06.009Z,6.23
2023-02-27T21:25:33.896Z,7.07
2023-02-27T21:28:02.247Z,6.60
2023-02-27T21:30:30.391Z,6.17
2023-02-27T21:32:58.312Z,7.47
2023-02-27T21:35:26.246Z,7.87
2023-02-27T21:37:54.641Z,5.97
2023-02-27T21:40:23.998Z,9.07
2023-02-27T21:42:52.892Z,7.43
2023-02-27T21:45:20.736Z,7.07
2023-02-27T21:47:48.606Z,6.20
2023-02-27T21:50:18.174Z,5.67
2023-02-27T21:52:46.024Z,8.07
2023-02-27T21:55:14.219Z,7.17
2023-02-27T21:57:43.425Z,8.13
2023-02-27T22:00:12.745Z,7.37
2023-02-27T22:02:41.080Z,7.87
2023-02-27T22:05:09.600Z,6.87
2023-02-27T22:07:38.387Z,7.57
2023-02-27T22:10:06.874Z,6.40
2023-02-27T22:12:34.603Z,6.93
2023-02-27T22:15:03.922Z,7.10
2023-02-27T22:17:31.676Z,6.73
2023-02-27T22:19:59.469Z,7.63
2023-02-27T22:22:27.361Z,5.93
2023-02-27T22:24:55.276Z,7.80
2023-02-27T22:27:23.050Z,7.80
2023-02-27T22:29:50.838Z,9.17
2023-02-27T22:32:20.107Z,8.43
2023-02-27T22:34:47.951Z,12.63
2023-02-27T22:37:16.208Z,9.27
2023-02-27T22:39:43.974Z,9.43
2023-02-27T22:42:11.758Z,7.03
2023-02-27T22:44:39.520Z,9.50
2023-02-27T22:47:07.279Z,8.80
2023-02-27T22:49:37.054Z,8.47
2023-02-27T22:52:05.288Z,8.97
2023-02-27T22:54:33.087Z,8.77
2023-02-27T22:57:00.948Z,10.03
2023-02-27T22:59:29.469Z,9.97
2023-02-27T23:01:57.370Z,9.63
2023-02-27T23:04:25.161Z,10.23
2023-02-27T23:06:55.718Z,9.23
2023-02-27T23:09:27.137Z,8.70
2023-02-27T23:11:55.656Z,10.20
2023-02-27T23:14:23.759Z,10.70
2023-02-27T23:16:51.511Z,8.57
2023-02-27T23:19:21.305Z,9.20
2023-02-27T23:21:49.159Z,8.70
2023-02-27T23:24:20.318Z,7.23
2023-02-27T23:26:50.202Z,6.13
2023-02-27T23:29:18.516Z,6.07
2023-02-27T23:31:46.391Z,7.57
2023-02-27T23:34:14.394Z,6.40
2023-02-27T23:36:42.221Z,7.73
2023-02-27T23:39:10.336Z,6.23
2023-02-27T23:41:39.485Z,5.57
2023-02-27T23:44:24.878Z,6.27
2023-02-27T23:46:52.771Z,5.07
2023-02-27T23:49:20.762Z,3.80
2023-02-27T23:51:48.559Z,4.77
2023-02-27T23:54:16.376Z,5.27
2023-02-27T23:56:47.826Z,4.67
2023-02-27T23:59:15.778Z,3.57
